Time;durP1;ratioP1;P1;durP2;ratioP2;P2;SDS_P1;SDS_P2;PMS_P1;PMS_P2;Temp;Humidity;BMP_temperature;BMP_pressure;BME280_temperature;BME280_humidity;BME280_pressure;Samples;Min_cycle;Max_cycle;Signal;HPM_P1;HPM_P2
2023/06/15 00:01:40;;;;;;;14.48;5.93;;;512.50;2380.80;;;;;;4893119;29;20060;-80
2023/06/15 00:04:06;;;;;;;11.57;6.45;;;512.50;2380.80;;;;;;4891822;29;20071;-79
2023/06/15 00:06:32;;;;;;;10.73;5.95;;;512.50;2380.80;;;;;;4894558;29;20120;-77
2023/06/15 00:08:58;;;;;;;10.85;6.07;;;512.40;2380.80;;;;;;4888363;29;20017;-73
2023/06/15 00:11:24;;;;;;;11.70;5.90;;;512.30;2380.80;;;;;;4895738;29;20494;-77
2023/06/15 00:13:50;;;;;;;12.02;6.38;;;512.40;2380.80;;;;;;4893982;29;20037;-79
2023/06/15 00:16:18;;;;;;;10.65;5.97;;;512.30;2380.80;;;;;;4896018;29;20044;-78
2023/06/15 00:18:48;;;;;;;19.42;6.20;;;512.30;2380.80;;;;;;4890988;29;20032;-80
2023/06/15 00:21:16;;;;;;;11.75;6.03;;;512.30;2380.80;;;;;;4895555;29;20383;-78
2023/06/15 00:23:45;;;;;;;12.20;6.28;;;512.30;2380.80;;;;;;4894571;29;20056;-79
2023/06/15 00:26:11;;;;;;;11.52;6.32;;;512.20;2380.80;;;;;;4891582;29;20021;-76
2023/06/15 00:28:37;;;;;;;11.75;5.90;;;512.20;2380.80;;;;;;4893824;29;20028;-76
2023/06/15 00:31:03;;;;;;;17.05;7.13;;;512.20;2380.80;;;;;;4889693;29;20033;-77
2023/06/15 00:33:28;;;;;;;12.00;6.22;;;512.10;2380.80;;;;;;4891906;29;20028;-78
2023/06/15 00:35:54;;;;;;;11.27;6.43;;;512.20;2380.80;;;;;;4888629;29;20493;-72
2023/06/15 00:38:19;;;;;;;11.20;6.93;;;512.10;2380.80;;;;;;4892980;29;20025;-79
2023/06/15 00:40:45;;;;;;;13.75;6.72;;;512.10;2380.80;;;;;;4891038;29;20028;-76
2023/06/15 00:43:11;;;;;;;11.25;6.68;;;512.00;2380.80;;;;;;4891241;29;20111;-73
2023/06/15 00:45:37;;;;;;;10.00;6.50;;;512.00;2380.80;;;;;;4892734;29;20069;-77
2023/06/15 00:48:03;;;;;;;9.70;5.93;;;512.00;2380.80;;;;;;4885292;29;20044;-79
2023/06/15 00:50:30;;;;;;;10.10;6.25;;;512.00;2380.80;;;;;;4885130;29;20026;-76
2023/06/15 00:53:03;;;;;;;11.15;6.53;;;512.20;2380.80;;;;;;4895373;29;20032;-76
2023/06/15 00:55:31;;;;;;;14.93;7.05;;;512.00;2380.80;;;;;;4894213;29;20471;-75
2023/06/15 00:57:57;;;;;;;13.40;6.63;;;512.00;2380.80;;;;;;4884606;29;20047;-81
2023/06/15 01:00:23;;;;;;;12.38;6.95;;;512.00;2380.80;;;;;;4893781;29;20463;-76
2023/06/15 01:02:50;;;;;;;19.83;7.75;;;512.00;2380.80;;;;;;4892359;29;20029;-80
2023/06/15 01:05:17;;;;;;;11.10;7.43;;;512.10;2380.80;;;;;;4900911;29;20104;-82
2023/06/15 01:07:47;;;;;;;13.02;7.03;;;512.00;2380.80;;;;;;4892099;29;20069;-80
2023/06/15 01:10:17;;;;;;;9.82;7.00;;;512.00;2380.80;;;;;;4881863;29;20025;-82
2023/06/15 01:12:45;;;;;;;14.65;7.65;;;487.30;2380.80;;;;;;4882205;29;20033;-80
2023/06/15 01:15:12;;;;;;;12.18;7.28;;;487.20;2380.80;;;;;;4881612;29;20059;-83
2023/06/15 01:17:44;;;;;;;14.07;7.90;;;487.20;2380.80;;;;;;4881585;29;20068;-79
2023/06/15 01:20:16;;;;;;;9.95;6.82;;;487.20;2380.80;;;;;;4881946;29;20021;-80
2023/06/15 01:22:57;;;;;;;18.98;8.07;;;487.10;2380.80;;;;;;4881766;29;20031;-78
2023/06/15 01:25:44;;;;;;;15.02;8.35;;;487.00;2380.80;;;;;;4882280;29;20021;-80
2023/06/15 01:28:12;;;;;;;15.80;8.90;;;486.90;2380.80;;;;;;4898078;29;20025;-82
2023/06/15 01:30:42;;;;;;;14.38;8.15;;;486.90;2380.80;;;;;;4899829;29;20021;-78
2023/06/15 01:33:08;;;;;;;19.02;8.27;;;486.90;2380.80;;;;;;4899284;29;20092;-76
2023/06/15 01:35:33;;;;;;;14.93;8.85;;;486.60;2380.80;;;;;;4888562;29;20028;-80
2023/06/15 01:37:59;;;;;;;16.63;8.98;;;486.90;2380.80;;;;;;4890804;29;21515;-82
2023/06/15 01:40:26;;;;;;;15.85;8.25;;;486.90;2380.80;;;;;;4886032;29;20073;-82
2023/06/15 01:42:52;;;;;;;16.20;7.97;;;486.90;2380.80;;;;;;4887377;29;20029;-82
2023/06/15 01:45:20;;;;;;;12.15;8.93;;;486.80;2380.80;;;;;;4890126;29;20028;-79
2023/06/15 01:47:48;;;;;;;15.48;8.23;;;486.90;2380.80;;;;;;4889681;29;20032;-81
2023/06/15 01:50:16;;;;;;;14.82;7.97;;;486.80;2380.80;;;;;;4887352;29;20498;-77
2023/06/15 01:52:42;;;;;;;16.77;8.45;;;486.90;2380.80;;;;;;4887725;29;20180;-81
2023/06/15 01:55:08;;;;;;;14.02;8.30;;;486.90;2380.80;;;;;;4887779;29;20519;-78
2023/06/15 01:57:35;;;;;;;16.42;8.73;;;486.80;2380.80;;;;;;4888202;29;20044;-83
2023/06/15 02:00:03;;;;;;;13.65;9.10;;;486.80;2380.80;;;;;;4888346;29;20037;-72
2023/06/15 02:02:28;;;;;;;12.70;8.20;;;486.80;2380.80;;;;;;4887383;29;20091;-80
2023/06/15 02:04:54;;;;;;;14.23;9.07;;;486.70;2380.80;;;;;;4893804;29;20035;-77
2023/06/15 02:07:20;;;;;;;16.23;8.90;;;486.80;2380.80;;;;;;4898682;29;20180;-76
2023/06/15 02:09:45;;;;;;;13.90;8.38;;;486.80;2380.80;;;;;;4886713;29;20032;-79
2023/06/15 02:12:11;;;;;;;15.32;8.38;;;486.90;2380.80;;;;;;4889000;29;20056;-76
2023/06/15 02:14:37;;;;;;;15.52;8.50;;;486.90;2380.80;;;;;;4884049;29;20638;-75
2023/06/15 02:17:03;;;;;;;12.80;8.32;;;486.90;2380.80;;;;;;4885978;29;20051;-76
2023/06/15 02:19:29;;;;;;;12.35;8.38;;;486.90;2380.80;;;;;;4882767;29;20017;-80
2023/06/15 02:21:55;;;;;;;16.85;8.80;;;486.80;2380.80;;;;;;4887007;29;20107;-73
2023/06/15 02:24:21;;;;;;;24.27;9.73;;;486.90;2380.80;;;;;;4882269;29;20092;-80
2023/06/15 02:26:47;;;;;;;18.85;9.30;;;486.90;2380.80;;;;;;4884565;29;20495;-80
2023/06/15 02:29:13;;;;;;;17.65;8.95;;;486.90;2380.80;;;;;;4885525;29;20024;-81
2023/06/15 02:31:38;;;;;;;18.75;9.63;;;486.80;2380.80;;;;;;4887258;29;20051;-82
2023/06/15 02:34:04;;;;;;;16.13;9.82;;;486.80;2380.80;;;;;;4885703;29;20105;-79
2023/06/15 02:36:30;;;;;;;13.05;8.23;;;486.70;2380.80;;;;;;4884944;29;20058;-82
2023/06/15 02:38:57;;;;;;;20.02;9.93;;;486.70;2380.80;;;;;;4884671;29;20090;-78
2023/06/15 02:41:22;;;;;;;22.70;10.65;;;486.60;2380.80;;;;;;4884381;29;20036;-82
2023/06/15 02:43:48;;;;;;;22.35;9.43;;;486.50;2380.80;;;;;;4888714;29;20059;-74
2023/06/15 02:46:14;;;;;;;17.85;9.55;;;486.50;2380.80;;;;;;4884807;29;20025;-73
2023/06/15 02:48:40;;;;;;;18.88;9.23;;;486.50;2380.80;;;;;;4888344;29;20549;-76
2023/06/15 02:51:07;;;;;;;20.90;9.88;;;486.50;2380.80;;;;;;4888488;29;20060;-78
2023/06/15 02:53:33;;;;;;;24.35;10.10;;;486.60;2380.80;;;;;;4889217;29;20067;-82
2023/06/15 02:56:02;;;;;;;16.35;9.75;;;486.50;2380.80;;;;;;4884277;29;20036;-79
2023/06/15 02:58:32;;;;;;;15.60;9.73;;;486.50;2380.80;;;;;;4882429;29;20052;-80
2023/06/15 03:01:00;;;;;;;13.57;9.80;;;486.50;2380.80;;;;;;4882225;29;20476;-78
2023/06/15 03:03:27;;;;;;;18.33;9.55;;;486.50;2380.80;;;;;;4884850;29;20028;-75
2023/06/15 03:05:54;;;;;;;23.08;10.02;;;486.60;2380.80;;;;;;4888827;29;20127;-80
2023/06/15 03:08:23;;;;;;;16.77;8.95;;;486.60;2380.80;;;;;;4887540;29;20072;-81
2023/06/15 03:10:52;;;;;;;16.05;8.30;;;486.60;2380.80;;;;;;4882719;29;20079;-82
2023/06/15 03:13:19;;;;;;;18.05;9.30;;;486.60;2380.80;;;;;;4883772;29;20017;-79
2023/06/15 03:15:45;;;;;;;16.13;8.85;;;486.60;2380.80;;;;;;4888704;29;20406;-82
2023/06/15 03:18:11;;;;;;;17.98;8.60;;;486.70;2380.80;;;;;;4892044;29;20225;-80
2023/06/15 03:20:37;;;;;;;16.13;9.07;;;486.70;2380.80;;;;;;4889184;29;20143;-78
2023/06/15 03:23:03;;;;;;;17.02;8.85;;;486.60;2380.80;;;;;;4886069;29;20063;-80
2023/06/15 03:25:31;;;;;;;19.00;9.18;;;486.60;2380.80;;;;;;4882857;29;20049;-81
2023/06/15 03:28:00;;;;;;;17.42;10.00;;;486.60;2380.80;;;;;;4888639;29;20021;-82
2023/06/15 03:30:29;;;;;;;18.58;9.32;;;486.50;2380.80;;;;;;4882347;29;20530;-81
2023/06/15 03:32:54;;;;;;;17.80;8.18;;;486.50;2380.80;;;;;;4884599;29;20033;-83
2023/06/15 03:35:20;;;;;;;14.65;8.82;;;486.70;2380.80;;;;;;4883196;29;20494;-78
2023/06/15 03:37:47;;;;;;;21.98;9.82;;;486.70;2380.80;;;;;;4888682;29;20030;-83
2023/06/15 03:40:13;;;;;;;15.63;9.63;;;486.70;2380.80;;;;;;4883456;29;20073;-76
2023/06/15 03:42:40;;;;;;;14.02;8.73;;;486.80;2380.80;;;;;;4886699;29;20514;-83
2023/06/15 03:45:06;;;;;;;17.00;9.13;;;486.80;2380.80;;;;;;4887756;29;20025;-82
2023/06/15 03:47:32;;;;;;;14.52;8.85;;;486.80;2380.80;;;;;;4884688;29;20076;-80
2023/06/15 03:49:58;;;;;;;15.73;9.57;;;486.80;2380.80;;;;;;4884334;29;20028;-82
2023/06/15 03:52:26;;;;;;;14.70;9.00;;;486.80;2380.80;;;;;;4888005;29;20036;-81
2023/06/15 03:54:51;;;;;;;15.02;9.00;;;486.80;2380.80;;;;;;4885251;29;20096;-75
2023/06/15 03:57:17;;;;;;;18.38;9.85;;;486.80;2380.80;;;;;;4886427;29;20116;-81
2023/06/15 03:59:43;;;;;;;16.05;9.07;;;486.80;2380.80;;;;;;4888935;29;20028;-80
2023/06/15 04:02:09;;;;;;;14.63;8.55;;;486.80;2380.80;;;;;;4892499;29;20032;-75
2023/06/15 04:04:34;;;;;;;16.27;8.93;;;486.90;2380.80;;;;;;4887196;29;20072;-80
2023/06/15 04:07:00;;;;;;;18.30;9.93;;;486.90;2380.80;;;;;;4890602;29;20021;-80
2023/06/15 04:09:27;;;;;;;13.85;8.85;;;486.90;2380.80;;;;;;4896491;29;20100;-80
2023/06/15 04:11:52;;;;;;;21.65;9.75;;;486.90;2380.80;;;;;;4896500;29;20483;-81
2023/06/15 04:14:18;;;;;;;14.73;10.13;;;486.90;2380.80;;;;;;4890058;29;20061;-76
2023/06/15 04:16:44;;;;;;;14.38;9.32;;;486.80;2380.80;;;;;;4889695;29;20120;-77
2023/06/15 04:19:10;;;;;;;18.88;9.77;;;486.90;2380.80;;;;;;4883102;29;20484;-81
2023/06/15 04:21:36;;;;;;;16.27;9.98;;;486.90;2380.80;;;;;;4878785;29;20136;-76
2023/06/15 04:24:03;;;;;;;16.42;8.35;;;486.80;2380.80;;;;;;4887108;29;20032;-77
2023/06/15 04:26:29;;;;;;;15.13;9.60;;;486.80;2380.80;;;;;;4890005;29;20116;-77
2023/06/15 04:28:57;;;;;;;16.35;9.85;;;486.80;2380.80;;;;;;4887724;29;20161;-75
2023/06/15 04:31:24;;;;;;;19.50;9.70;;;486.80;2380.80;;;;;;4892973;29;20471;-79
2023/06/15 04:33:58;;;;;;;14.68;9.15;;;486.80;2380.80;;;;;;4884453;29;20391;-75
2023/06/15 04:36:24;;;;;;;15.07;10.05;;;486.90;2380.80;;;;;;4886105;29;20029;-74
2023/06/15 04:38:50;;;;;;;18.23;9.40;;;486.90;2380.80;;;;;;4892837;29;20021;-72
2023/06/15 04:41:22;;;;;;;16.30;10.63;;;486.90;2380.80;;;;;;4886525;29;20036;-70
2023/06/15 04:43:48;;;;;;;14.23;9.38;;;486.90;2380.80;;;;;;4888359;29;20029;-72
2023/06/15 04:46:14;;;;;;;17.38;8.85;;;487.00;2380.80;;;;;;4897382;29;20029;-71
2023/06/15 04:48:43;;;;;;;20.80;8.80;;;487.10;2380.80;;;;;;4886217;29;20380;-72
2023/06/15 04:51:12;;;;;;;16.35;9.07;;;487.10;2380.80;;;;;;4885654;29;20532;-72
2023/06/15 04:53:38;;;;;;;12.88;8.75;;;487.10;2380.80;;;;;;4895501;29;20108;-74
2023/06/15 04:56:04;;;;;;;13.50;8.70;;;487.10;2380.80;;;;;;4884748;29;20029;-75
2023/06/15 04:58:30;;;;;;;17.42;9.20;;;487.20;2380.80;;;;;;4890834;29;20057;-73
2023/06/15 05:00:56;;;;;;;15.80;8.65;;;487.20;2380.80;;;;;;4873659;29;20043;-74
2023/06/15 05:03:22;;;;;;;13.13;8.90;;;487.20;2380.80;;;;;;4887805;29;20033;-73
2023/06/15 05:05:47;;;;;;;14.85;8.10;;;487.30;2380.80;;;;;;4887649;29;20032;-74
2023/06/15 05:08:13;;;;;;;15.73;8.75;;;487.30;2380.80;;;;;;4887498;29;20029;-74
2023/06/15 05:10:39;;;;;;;12.15;8.38;;;512.50;2380.80;;;;;;4889767;29;20423;-75
2023/06/15 05:13:05;;;;;;;14.68;8.70;;;487.30;2380.80;;;;;;4890947;29;20040;-74
2023/06/15 05:15:31;;;;;;;12.82;8.50;;;487.30;2380.80;;;;;;4883173;29;20048;-72
2023/06/15 05:17:56;;;;;;;14.27;8.63;;;512.00;2380.80;;;;;;4889208;29;20037;-74
2023/06/15 05:20:22;;;;;;;19.70;8.35;;;512.00;2380.80;;;;;;4886550;29;20025;-78
2023/06/15 05:22:48;;;;;;;17.30;8.45;;;512.00;2380.80;;;;;;4883486;29;20066;-73
2023/06/15 05:25:13;;;;;;;16.85;8.90;;;512.10;2380.80;;;;;;4891684;29;20025;-76
2023/06/15 05:27:39;;;;;;;12.77;7.80;;;512.10;2380.80;;;;;;4892423;29;20103;-73
2023/06/15 05:30:11;;;;;;;15.18;9.10;;;512.20;2380.80;;;;;;4883279;29;20029;-73
2023/06/15 05:32:38;;;;;;;15.45;8.45;;;512.20;2380.80;;;;;;4884664;29;20025;-75
2023/06/15 05:35:06;;;;;;;15.50;8.48;;;512.20;2380.80;;;;;;4889620;29;20029;-75
2023/06/15 05:37:33;;;;;;;15.82;8.25;;;512.30;2380.80;;;;;;4898405;29;20099;-73
2023/06/15 05:39:59;;;;;;;12.93;8.05;;;512.30;2380.80;;;;;;4897157;29;20551;-74
2023/06/15 05:42:28;;;;;;;17.08;7.72;;;512.30;2380.80;;;;;;4888654;29;20064;-73
2023/06/15 05:44:54;;;;;;;14.55;8.15;;;512.30;2380.80;;;;;;4899304;29;20475;-72
2023/06/15 05:47:20;;;;;;;16.20;8.38;;;512.30;2380.80;;;;;;4882450;29;20028;-73
2023/06/15 05:49:46;;;;;;;16.17;8.75;;;512.30;2380.80;;;;;;4882245;29;20068;-74
2023/06/15 05:52:14;;;;;;;17.20;7.97;;;512.30;2380.80;;;;;;4899005;29;20120;-73
2023/06/15 05:54:45;;;;;;;16.23;8.48;;;512.30;2380.80;;;;;;4899180;29;20032;-74
2023/06/15 05:57:11;;;;;;;14.77;7.90;;;512.30;2380.80;;;;;;4899216;29;20043;-74
2023/06/15 05:59:37;;;;;;;13.77;8.02;;;512.30;2380.80;;;;;;4911680;29;20020;-72
2023/06/15 06:02:03;;;;;;;12.63;7.55;;;512.40;2380.80;;;;;;4899149;29;20379;-73
2023/06/15 06:04:29;;;;;;;9.10;6.70;;;512.50;2380.80;;;;;;4900025;29;20029;-71
2023/06/15 06:06:54;;;;;;;14.95;9.00;;;512.50;2380.80;;;;;;4910379;29;20084;-80
2023/06/15 06:09:20;;;;;;;12.85;7.90;;;512.60;2380.80;;;;;;4898985;29;20108;-72
2023/06/15 06:11:47;;;;;;;12.65;7.03;;;512.50;2380.80;;;;;;4881834;29;20036;-75
2023/06/15 06:14:14;;;;;;;11.38;8.02;;;512.50;2380.80;;;;;;4898812;29;20033;-75
2023/06/15 06:16:40;;;;;;;16.63;7.53;;;512.60;2380.80;;;;;;4898596;29;20523;-74
2023/06/15 06:19:05;;;;;;;11.77;7.57;;;512.80;2380.80;;;;;;4898786;29;20028;-73
2023/06/15 06:21:32;;;;;;;13.63;7.40;;;512.80;2380.80;;;;;;4898569;29;20035;-78
2023/06/15 06:23:58;;;;;;;13.50;7.95;;;512.90;2380.80;;;;;;4881769;29;20365;-73
2023/06/15 06:26:24;;;;;;;11.98;7.38;;;512.80;2380.80;;;;;;4898657;29;20099;-77
2023/06/15 06:28:50;;;;;;;13.48;8.95;;;512.90;2380.80;;;;;;4898656;29;20075;-77
2023/06/15 06:31:15;;;;;;;13.85;7.30;;;537.70;2406.40;;;;;;4904499;29;20443;-72
2023/06/15 06:33:41;;;;;;;13.20;7.20;;;537.80;2406.40;;;;;;4917355;29;20038;-79
2023/06/15 06:36:08;;;;;;;14.48;7.40;;;537.80;2406.40;;;;;;4898292;29;20037;-71
2023/06/15 06:38:34;;;;;;;12.93;6.85;;;537.70;2406.40;;;;;;4898517;29;20047;-74
2023/06/15 06:41:00;;;;;;;11.95;7.85;;;537.80;2406.40;;;;;;4898427;29;20028;-72
2023/06/15 06:43:26;;;;;;;12.80;7.45;;;537.90;2406.40;;;;;;4898338;29;20442;-73
2023/06/15 06:45:52;;;;;;;17.38;8.50;;;537.80;2406.40;;;;;;4898364;29;20068;-75
2023/06/15 06:48:18;;;;;;;12.75;7.45;;;537.90;2406.40;;;;;;4910496;29;20024;-72
2023/06/15 06:50:43;;;;;;;15.63;7.53;;;537.90;2406.40;;;;;;4897950;29;20073;-73
2023/06/15 06:53:10;;;;;;;16.30;7.75;;;537.90;2406.40;;;;;;4898175;29;20491;-73
2023/06/15 06:55:35;;;;;;;12.88;6.63;;;538.00;2406.40;;;;;;4898130;29;20032;-73
2023/06/15 06:58:01;;;;;;;10.35;6.43;;;538.00;2406.40;;;;;;4898242;29;20029;-73
2023/06/15 07:00:28;;;;;;;13.73;7.43;;;538.00;2406.40;;;;;;4897998;29;20073;-72
2023/06/15 07:02:54;;;;;;;14.75;7.38;;;538.00;2406.40;;;;;;4897946;29;20491;-73
2023/06/15 07:05:20;;;;;;;11.85;7.13;;;538.00;2406.40;;;;;;4897997;29;20032;-73
2023/06/15 07:07:47;;;;;;;12.63;7.10;;;538.00;2406.40;;;;;;4881188;29;20028;-75
2023/06/15 07:10:12;;;;;;;15.25;6.88;;;538.10;2406.40;;;;;;4904258;29;20386;-74
2023/06/15 07:12:38;;;;;;;13.52;7.10;;;538.20;2406.40;;;;;;4904365;29;20028;-73
2023/06/15 07:15:05;;;;;;;17.75;6.82;;;538.30;2406.40;;;;;;4897700;29;20048;-74
2023/06/15 07:17:31;;;;;;;10.40;6.85;;;538.30;2406.40;;;;;;4897967;29;20048;-74
2023/06/15 07:19:57;;;;;;;10.55;6.72;;;538.40;2406.40;;;;;;4885327;29;20369;-74
2023/06/15 07:22:23;;;;;;;9.90;7.40;;;538.50;2406.40;;;;;;4897956;29;20029;-73
2023/06/15 07:24:50;;;;;;;9.68;6.55;;;538.50;2406.40;;;;;;4891758;29;20048;-77
2023/06/15 07:27:16;;;;;;;8.77;6.20;;;563.20;2432.00;;;;;;4903816;29;20120;-76
2023/06/15 07:29:42;;;;;;;11.18;7.32;;;563.20;2432.00;;;;;;4909955;29;20043;-74
2023/06/15 07:32:08;;;;;;;12.07;7.13;;;563.20;2432.00;;;;;;4897693;29;20029;-74
2023/06/15 07:34:33;;;;;;;8.60;6.03;;;563.30;2432.00;;;;;;4897731;29;20025;-76
2023/06/15 07:36:59;;;;;;;10.60;6.40;;;563.30;2432.00;;;;;;4897320;29;20045;-78
2023/06/15 07:39:25;;;;;;;16.80;6.93;;;563.40;2432.00;;;;;;4897826;29;20095;-80
2023/06/15 07:41:51;;;;;;;10.95;6.68;;;563.40;2432.00;;;;;;4897617;29;20089;-77
2023/06/15 07:44:16;;;;;;;12.20;6.93;;;563.50;2432.00;;;;;;4897574;29;20031;-76
2023/06/15 07:46:42;;;;;;;10.10;6.32;;;563.50;2432.00;;;;;;4909976;29;20508;-74
2023/06/15 07:49:09;;;;;;;10.57;6.57;;;563.60;2432.00;;;;;;4897651;29;20057;-73
2023/06/15 07:51:35;;;;;;;11.75;7.32;;;563.60;2432.00;;;;;;4897286;29;20024;-72
2023/06/15 07:54:02;;;;;;;13.07;7.45;;;563.70;2432.00;;;;;;4905344;29;20028;-75
2023/06/15 07:56:27;;;;;;;10.65;6.35;;;563.70;2432.00;;;;;;4916225;29;20040;-74
2023/06/15 07:58:53;;;;;;;11.18;6.85;;;563.80;2432.00;;;;;;4908605;29;20471;-74
2023/06/15 08:01:19;;;;;;;11.88;7.22;;;563.80;2432.00;;;;;;4899026;29;20039;-72
2023/06/15 08:03:45;;;;;;;12.38;7.28;;;564.00;2432.00;;;;;;4901242;29;20111;-74
2023/06/15 08:06:11;;;;;;;9.98;6.53;;;564.10;2432.00;;;;;;4901209;29;20107;-74
2023/06/15 08:08:37;;;;;;;12.15;6.38;;;564.10;2432.00;;;;;;4901111;29;20021;-76
2023/06/15 08:11:06;;;;;;;13.02;7.53;;;588.80;2432.00;;;;;;4901062;29;20435;-74
2023/06/15 08:13:32;;;;;;;15.13;6.35;;;588.90;2432.00;;;;;;4900896;29;20025;-75
2023/06/15 08:15:58;;;;;;;13.73;6.50;;;589.00;2432.00;;;;;;4900918;29;20467;-75
2023/06/15 08:18:26;;;;;;;13.15;6.50;;;589.00;2432.00;;;;;;4901132;29;20079;-74
2023/06/15 08:20:52;;;;;;;8.95;6.80;;;589.20;2432.00;;;;;;4900508;29;20199;-74
2023/06/15 08:23:18;;;;;;;11.43;6.50;;;589.40;2432.00;;;;;;4900920;29;20028;-74
2023/06/15 08:25:44;;;;;;;13.32;6.90;;;589.50;2432.00;;;;;;4913140;29;20025;-75
2023/06/15 08:28:10;;;;;;;10.77;6.85;;;589.60;2432.00;;;;;;4900857;29;20051;-75
2023/06/15 08:30:35;;;;;;;8.70;6.57;;;589.60;2432.00;;;;;;4900793;29;20527;-75
2023/06/15 08:33:01;;;;;;;15.05;7.18;;;589.70;2432.00;;;;;;4900775;29;20080;-76
2023/06/15 08:35:27;;;;;;;9.45;6.65;;;589.70;2432.00;;;;;;4900723;29;20097;-74
2023/06/15 08:37:53;;;;;;;9.75;6.88;;;589.70;2432.00;;;;;;4900649;29;20028;-75
2023/06/15 08:40:20;;;;;;;12.70;6.90;;;589.70;2432.00;;;;;;4900262;29;20032;-76
2023/06/15 08:42:46;;;;;;;14.68;6.55;;;589.70;2432.00;;;;;;4900514;29;20056;-75
2023/06/15 08:45:13;;;;;;;11.50;7.35;;;614.40;2432.00;;;;;;4900096;29;20033;-74
2023/06/15 08:47:40;;;;;;;11.88;7.80;;;589.70;2432.00;;;;;;4900458;29;20043;-74
2023/06/15 08:50:06;;;;;;;13.00;7.47;;;589.70;2432.00;;;;;;4900396;29;20108;-73
2023/06/15 08:52:37;;;;;;;21.80;8.07;;;614.40;2432.00;;;;;;4900416;29;20090;-74
2023/06/15 08:55:04;;;;;;;9.80;7.07;;;614.40;2432.00;;;;;;4900055;29;20095;-74
2023/06/15 08:57:35;;;;;;;9.88;6.32;;;614.40;2432.00;;;;;;4909013;29;20028;-74
2023/06/15 09:00:07;;;;;;;9.45;6.03;;;614.40;2432.00;;;;;;4903405;29;20319;-76
2023/06/15 09:02:40;;;;;;;10.43;7.90;;;614.50;2432.00;;;;;;4883362;29;20115;-76
2023/06/15 09:05:06;;;;;;;13.30;6.78;;;614.60;2432.00;;;;;;4912783;29;20020;-76
2023/06/15 09:07:32;;;;;;;10.10;6.47;;;614.50;2432.00;;;;;;4911389;29;20036;-74
2023/06/15 09:10:14;;;;;;;8.77;6.32;;;614.60;2432.00;;;;;;4901214;29;20025;-75
2023/06/15 09:12:48;;;;;;;10.13;7.03;;;614.70;2432.00;;;;;;4882579;29;20088;-74
2023/06/15 09:15:30;;;;;;;10.57;6.13;;;614.70;2432.00;;;;;;4888085;29;20415;-73
2023/06/15 09:17:58;;;;;;;12.52;7.00;;;614.70;2432.00;;;;;;4899633;29;20044;-73
2023/06/15 09:20:25;;;;;;;9.07;6.57;;;614.60;2432.00;;;;;;4899974;29;20479;-75
2023/06/15 09:22:52;;;;;;;9.25;6.88;;;614.60;2432.00;;;;;;4882388;29;20064;-76
2023/06/15 09:25:21;;;;;;;9.35;6.45;;;614.60;2432.00;;;;;;4909469;29;20107;-74
2023/06/15 09:27:58;;;;;;;13.63;6.20;;;614.60;2432.00;;;;;;4901999;29;20108;-74
2023/06/15 09:30:31;;;;;;;12.48;6.28;;;614.60;2432.00;;;;;;4899811;29;20379;-73
2023/06/15 09:32:58;;;;;;;9.77;6.50;;;614.70;2432.00;;;;;;4899383;29;20029;-74
2023/06/15 09:35:24;;;;;;;13.45;7.30;;;614.60;2304.00;;;;;;4899710;29;20025;-74
2023/06/15 09:37:55;;;;;;;11.15;6.63;;;614.60;2380.80;;;;;;4899335;29;20024;-74
2023/06/15 09:40:25;;;;;;;7.57;6.25;;;614.60;2355.20;;;;;;4899601;29;20376;-74
2023/06/15 09:42:53;;;;;;;9.68;6.70;;;614.60;2432.00;;;;;;4906529;29;20051;-75
2023/06/15 09:45:19;;;;;;;9.18;6.13;;;614.70;2329.60;;;;;;4904359;29;20087;-74
2023/06/15 09:47:44;;;;;;;12.38;6.85;;;614.80;2329.60;;;;;;4906619;29;20028;-73
2023/06/15 09:50:11;;;;;;;8.43;6.35;;;614.80;2432.00;;;;;;4904626;29;20431;-72
2023/06/15 09:52:42;;;;;;;11.65;5.97;;;614.80;2304.00;;;;;;4906282;29;20028;-73
2023/06/15 09:55:09;;;;;;;10.23;5.50;;;615.00;2278.40;;;;;;4903694;29;20116;-73
2023/06/15 09:57:35;;;;;;;8.73;6.18;;;615.00;2432.00;;;;;;4907112;29;20495;-75
2023/06/15 10:00:02;;;;;;;8.63;5.60;;;615.20;2432.00;;;;;;4903302;29;20029;-73
2023/06/15 10:02:29;;;;;;;8.23;5.80;;;615.20;2329.60;;;;;;4899066;29;20103;-77
2023/06/15 10:04:56;;;;;;;9.45;5.95;;;615.30;2176.00;;;;;;4898934;29;20021;-74
2023/06/15 10:07:22;;;;;;;8.27;5.88;;;615.30;2201.60;;;;;;4898944;29;20027;-75
2023/06/15 10:09:49;;;;;;;9.90;6.20;;;640.00;2150.40;;;;;;4898937;29;20060;-74
2023/06/15 10:12:18;;;;;;;8.50;5.28;;;640.20;2176.00;;;;;;4908366;29;20076;-74
2023/06/15 10:15:07;;;;;;;7.45;5.65;;;640.20;2278.40;;;;;;4900951;29;20072;-74
2023/06/15 10:17:34;;;;;;;9.70;5.55;;;640.20;2329.60;;;;;;4898623;29;20048;-75
2023/06/15 10:20:22;;;;;;;9.35;5.70;;;640.20;2355.20;;;;;;4898745;29;20056;-74
2023/06/15 10:23:07;;;;;;;8.07;5.57;;;640.40;2176.00;;;;;;4898417;29;20024;-74
2023/06/15 10:25:33;;;;;;;8.35;5.32;;;640.60;2073.60;;;;;;4898361;29;20027;-74
2023/06/15 10:28:09;;;;;;;9.48;5.35;;;640.70;1920.00;;;;;;4898513;29;20035;-73
2023/06/15 10:30:55;;;;;;;7.40;5.22;;;640.80;1996.80;;;;;;4899285;29;20031;-74
2023/06/15 10:34:00;;;;;;;7.60;4.95;;;665.70;1945.60;;;;;;4907733;29;20028;-73
2023/06/15 10:36:29;;;;;;;7.70;5.28;;;665.70;1920.00;;;;;;4896565;29;20036;-73
2023/06/15 10:38:58;;;;;;;9.38;5.43;;;666.10;1945.60;;;;;;4901740;29;20087;-74
2023/06/15 10:41:24;;;;;;;6.90;4.70;;;666.00;1868.80;;;;;;4898423;29;20474;-73
2023/06/15 10:44:02;;;;;;;12.50;5.63;;;666.00;1792.00;;;;;;4898161;29;20029;-76
2023/06/15 10:46:35;;;;;;;14.75;5.47;;;666.00;1843.20;;;;;;4898288;29;20040;-73
2023/06/15 10:49:06;;;;;;;10.32;5.05;;;665.90;1817.60;;;;;;4893752;29;20025;-74
2023/06/15 10:51:36;;;;;;;14.35;5.57;;;665.70;1766.40;;;;;;4898193;29;20032;-73
2023/06/15 10:54:05;;;;;;;7.70;4.95;;;665.60;1817.60;;;;;;4898396;29;20055;-73
2023/06/15 10:56:31;;;;;;;7.60;5.30;;;640.70;1843.20;;;;;;4898138;29;20497;-77
2023/06/15 10:59:03;;;;;;;10.15;5.10;;;640.90;1817.60;;;;;;4898120;29;20040;-73
2023/06/15 11:01:32;;;;;;;7.80;4.57;;;640.80;1766.40;;;;;;4897947;29;20032;-75
2023/06/15 11:04:18;;;;;;;9.73;5.25;;;640.70;1766.40;;;;;;4898220;29;20056;-76
2023/06/15 11:06:56;;;;;;;8.35;5.45;;;640.70;1715.20;;;;;;4897285;29;20039;-75
2023/06/15 11:09:24;;;;;;;10.88;5.35;;;640.70;1740.80;;;;;;4898173;29;20024;-76
2023/06/15 11:11:50;;;;;;;9.52;5.10;;;640.70;1792.00;;;;;;4910680;29;20116;-75
2023/06/15 11:14:19;;;;;;;8.88;5.20;;;640.70;1843.20;;;;;;4897846;29;20063;-77
2023/06/15 11:16:45;;;;;;;8.95;5.45;;;640.70;1817.60;;;;;;4898051;29;20386;-75
2023/06/15 11:19:11;;;;;;;9.27;5.13;;;640.80;1843.20;;;;;;4898050;29;20024;-75
2023/06/15 11:21:47;;;;;;;9.07;5.38;;;640.70;1817.60;;;;;;4897975;29;20031;-76
2023/06/15 11:24:13;;;;;;;;;;;640.70;1792.00;;;;;;4899817;29;20097;-75
2023/06/15 11:26:40;;;;;;;;;;;640.60;1740.80;;;;;;4909210;29;20358;-76
2023/06/15 11:29:08;;;;;;;10.23;5.85;;;640.50;1843.20;;;;;;4897883;29;20377;-76
2023/06/15 11:31:34;;;;;;;11.20;5.30;;;640.50;1868.80;;;;;;4898034;29;20078;-76
2023/06/15 11:34:00;;;;;;;7.03;4.82;;;640.50;1945.60;;;;;;4900017;29;20028;-75
2023/06/15 11:36:26;;;;;;;9.38;5.93;;;640.50;1920.00;;;;;;4911408;29;20075;-76
2023/06/15 11:38:53;;;;;;;13.32;5.18;;;640.50;2022.40;;;;;;4901486;29;20029;-77
2023/06/15 11:41:20;;;;;;;11.13;6.15;;;640.50;1996.80;;;;;;4901805;29;20118;-76
2023/06/15 11:43:49;;;;;;;9.35;5.70;;;640.50;1996.80;;;;;;4914119;29;20072;-74
2023/06/15 11:46:22;;;;;;;10.25;5.28;;;640.70;2022.40;;;;;;4901660;29;20025;-75
2023/06/15 11:48:56;;;;;;;9.88;5.75;;;640.90;2124.80;;;;;;4918274;29;20020;-77
2023/06/15 11:51:22;;;;;;;12.93;6.43;;;665.90;2073.60;;;;;;4908607;29;20107;-76
2023/06/15 11:53:47;;;;;;;9.10;6.22;;;666.00;2073.60;;;;;;4906879;29;20028;-76
2023/06/15 11:56:16;;;;;;;6.65;5.22;;;666.30;2073.60;;;;;;4908381;29;20043;-75
2023/06/15 11:58:43;;;;;;;7.97;5.05;;;666.50;1945.60;;;;;;4901234;29;20035;-75
2023/06/15 12:01:12;;;;;;;13.15;5.25;;;691.20;1894.40;;;;;;4901391;29;20024;-75
2023/06/15 12:03:42;;;;;;;10.35;5.65;;;691.40;1945.60;;;;;;4888957;29;20032;-75
2023/06/15 12:06:08;;;;;;;8.90;5.63;;;691.60;1996.80;;;;;;4901616;29;20039;-76
2023/06/15 12:08:34;;;;;;;15.35;6.63;;;691.70;1843.20;;;;;;4912766;29;20029;-75
2023/06/15 12:11:00;;;;;;;11.35;6.13;;;691.80;1868.80;;;;;;4901208;29;20464;-77
2023/06/15 12:13:26;;;;;;;8.25;5.63;;;691.80;1996.80;;;;;;4900734;29;20020;-81